Time;durP1;ratioP1;P1;durP2;ratioP2;P2;SDS_P1;SDS_P2;PMS_P1;PMS_P2;Temp;Humidity;BMP_temperature;BMP_pressure;BME280_temperature;BME280_humidity;BME280_pressure;Samples;Min_cycle;Max_cycle;Signal;HPM_P1;HPM_P2
2021/01/08 00:01:47;;;;;;;25.98;16.45;;;;;;;10.45;nan;100563.47;4976410;28;97376;-71
2021/01/08 00:04:15;;;;;;;25.92;16.73;;;;;;;10.48;nan;100564.53;4975622;28;98185;-70
2021/01/08 00:06:42;;;;;;;24.95;16.88;;;;;;;10.51;nan;100561.16;4973942;28;98086;-71
2021/01/08 00:09:10;;;;;;;27.85;17.42;;;;;;;10.53;nan;100556.91;4974085;28;96893;-70
2021/01/08 00:11:37;;;;;;;24.67;16.87;;;;;;;10.58;nan;100563.25;4975996;28;97602;-69
2021/01/08 00:14:05;;;;;;;25.13;17.38;;;;;;;10.64;nan;100558.28;4976285;28;98979;-71
2021/01/08 00:16:33;;;;;;;26.48;18.40;;;;;;;10.66;nan;100556.66;4974751;28;102408;-71
2021/01/08 00:19:02;;;;;;;26.75;17.70;;;;;;;10.67;nan;100558.47;4975346;28;97705;-69
2021/01/08 00:21:37;;;;;;;26.97;18.23;;;;;;;10.70;nan;100561.22;4941888;28;96972;-69
2021/01/08 00:24:06;;;;;;;27.23;18.13;;;;;;;10.73;nan;100558.78;4958251;28;97526;-71
2021/01/08 00:26:33;;;;;;;20.05;14.10;;;;;;;10.55;nan;100555.22;4957857;28;97343;-69
2021/01/08 00:29:00;;;;;;;22.00;13.05;;;;;;;10.43;nan;100555.53;4976728;28;97060;-69
2021/01/08 00:31:35;;;;;;;23.25;13.95;;;;;;;10.32;nan;100561.06;4959613;28;97174;-72
2021/01/08 00:34:04;;;;;;;20.33;12.75;;;;;;;10.27;nan;100552.97;4942621;28;101470;-70
2021/01/08 00:36:32;;;;;;;20.85;13.13;;;;;;;10.23;nan;100552.72;4958605;28;98924;-71
2021/01/08 00:39:00;;;;;;;19.73;12.55;;;;;;;10.15;nan;100550.63;4977644;28;97517;-71
2021/01/08 00:41:29;;;;;;;23.77;14.55;;;;;;;10.10;nan;100559.97;4982729;28;97160;-71
2021/01/08 00:43:57;;;;;;;22.27;13.30;;;;;;;10.03;nan;100557.84;4981513;28;98167;-70
2021/01/08 00:46:32;;;;;;;21.15;13.23;;;;;;;9.99;nan;100557.59;4958569;28;98506;-70
2021/01/08 00:49:00;;;;;;;23.52;13.82;;;;;;;9.97;nan;100544.38;4982204;28;96855;-70
2021/01/08 00:51:29;;;;;;;21.75;13.93;;;;;;;9.94;nan;100544.25;4965346;28;96977;-68
2021/01/08 00:53:57;;;;;;;20.20;12.38;;;;;;;9.89;nan;100537.84;4962475;28;100677;-70
2021/01/08 00:56:26;;;;;;;20.70;12.98;;;;;;;9.87;nan;100549.97;4962538;28;99313;-70
2021/01/08 00:58:58;;;;;;;21.50;13.13;;;;;;;9.87;nan;100539.47;4962016;28;97472;-70
2021/01/08 01:01:26;;;;;;;19.75;12.30;;;;;;;9.88;nan;100541.28;4981654;28;97872;-70
2021/01/08 01:03:53;;;;;;;20.20;12.98;;;;;;;9.86;nan;100545.56;4979903;28;97900;-71
2021/01/08 01:06:24;;;;;;;20.98;13.10;;;;;;;9.84;nan;100549.81;4981368;28;97014;-69
2021/01/08 01:08:53;;;;;;;19.45;13.05;;;;;;;9.86;nan;100556.06;4981564;28;97047;-69
2021/01/08 01:11:21;;;;;;;22.08;12.43;;;;;;;9.83;nan;100542.78;4981903;28;97634;-70
2021/01/08 01:13:50;;;;;;;19.52;12.15;;;;;;;9.81;nan;100546.13;4965480;28;97180;-70
2021/01/08 01:16:19;;;;;;;21.60;12.32;;;;;;;9.80;nan;100549.56;4982858;28;98341;-69
2021/01/08 01:18:48;;;;;;;21.42;13.30;;;;;;;9.81;nan;100544.44;4982604;28;97765;-70
2021/01/08 01:21:15;;;;;;;19.48;12.45;;;;;;;9.79;nan;100546.06;4964606;28;97630;-71
2021/01/08 01:23:43;;;;;;;20.48;12.52;;;;;;;9.76;nan;100547.63;4982471;28;99034;-70
2021/01/08 01:26:12;;;;;;;20.05;12.63;;;;;;;9.79;nan;100548.69;4965031;28;100551;-71
2021/01/08 01:28:40;;;;;;;20.20;12.60;;;;;;;9.81;nan;100552.28;4981879;28;97400;-71
2021/01/08 01:31:08;;;;;;;22.40;13.60;;;;;;;9.82;nan;100546.22;4981443;28;97005;-70
2021/01/08 01:33:35;;;;;;;20.48;12.43;;;;;;;9.87;nan;100555.22;4982175;28;98448;-71
2021/01/08 01:36:05;;;;;;;18.98;12.40;;;;;;;9.86;nan;100553.44;4983093;28;99019;-70
2021/01/08 01:38:32;;;;;;;19.50;12.45;;;;;;;9.86;nan;100556.06;4982456;28;97051;-71
2021/01/08 01:41:00;;;;;;;20.58;13.30;;;;;;;9.85;nan;100556.84;4963270;28;96916;-70
2021/01/08 01:43:28;;;;;;;19.08;12.30;;;;;;;9.86;nan;100553.44;4964351;28;98142;-69
2021/01/08 01:45:56;;;;;;;20.45;13.25;;;;;;;9.86;nan;100556.06;4964502;28;99737;-70
2021/01/08 01:48:24;;;;;;;19.17;12.55;;;;;;;9.85;nan;100554.22;4963356;28;97116;-70
2021/01/08 01:50:51;;;;;;;17.08;11.60;;;;;;;9.86;nan;100556.06;4976032;28;97563;-71
2021/01/08 01:53:19;;;;;;;19.10;13.27;;;;;;;9.84;nan;100556.78;4959546;28;98364;-71
2021/01/08 01:55:47;;;;;;;19.10;11.93;;;;;;;9.82;nan;100559.31;4959671;28;97467;-72
2021/01/08 01:58:14;;;;;;;19.83;12.55;;;;;;;9.81;nan;100554.91;4977225;28;97878;-68
2021/01/08 02:00:43;;;;;;;16.08;11.50;;;;;;;9.82;nan;100551.47;4977979;28;97487;-70
2021/01/08 02:03:17;;;;;;;16.27;11.50;;;;;;;9.84;nan;100555.06;4979327;28;97654;-71
2021/01/08 02:05:45;;;;;;;18.83;12.57;;;;;;;9.87;nan;100559.59;4978788;28;99303;-70
2021/01/08 02:08:16;;;;;;;18.70;12.73;;;;;;;9.90;nan;100550.16;4977504;28;97310;-70
2021/01/08 02:10:46;;;;;;;20.55;12.50;;;;;;;9.93;nan;100558.16;4978543;28;97434;-69
2021/01/08 02:13:24;;;;;;;19.70;12.07;;;;;;;9.92;nan;100547.59;4979080;28;99646;-71
2021/01/08 02:15:53;;;;;;;19.08;12.73;;;;;;;9.97;nan;100560.13;4979062;28;100398;-70
2021/01/08 02:18:21;;;;;;;17.23;11.40;;;;;;;9.96;nan;100553.06;4977789;28;97845;-70
2021/01/08 02:20:50;;;;;;;17.98;11.82;;;;;;;9.95;nan;100555.63;4977645;28;97919;-70
2021/01/08 02:23:42;;;;;;;18.70;12.60;;;;;;;9.95;nan;100553.91;4976938;28;99639;-68
2021/01/08 02:26:11;;;;;;;15.65;11.63;;;;;;;9.93;nan;100547.66;4958976;28;97840;-70
2021/01/08 02:28:42;;;;;;;18.10;11.57;;;;;;;9.94;nan;100551.19;4977887;28;97320;-69
2021/01/08 02:31:10;;;;;;;22.23;12.48;;;;;;;9.92;nan;100548.50;4961403;28;97459;-70
2021/01/08 02:33:38;;;;;;;20.33;12.25;;;;;;;9.91;nan;100546.69;4961277;28;99561;-70
2021/01/08 02:36:07;;;;;;;17.58;11.85;;;;;;;9.95;nan;100548.66;4959944;28;99698;-71
2021/01/08 02:38:35;;;;;;;17.10;11.05;;;;;;;9.99;nan;100552.34;4978258;28;97945;-71
2021/01/08 02:41:03;;;;;;;18.80;12.18;;;;;;;9.98;nan;100548.81;4978498;28;97178;-71
2021/01/08 02:43:34;;;;;;;20.85;11.80;;;;;;;9.98;nan;100550.53;4959711;28;100056;-71
2021/01/08 02:46:02;;;;;;;17.50;12.48;;;;;;;9.98;nan;100548.81;4978856;28;98583;-69
2021/01/08 02:48:31;;;;;;;19.92;12.38;;;;;;;9.99;nan;100548.00;4978298;28;97029;-71
2021/01/08 02:50:58;;;;;;;21.25;13.60;;;;;;;10.04;nan;100548.22;4977231;28;98226;-71
2021/01/08 02:53:27;;;;;;;16.90;11.85;;;;;;;10.04;nan;100550.84;4976688;28;98526;-71
2021/01/08 02:55:58;;;;;;;17.10;11.68;;;;;;;10.06;nan;100552.72;4959477;28;100967;-70
2021/01/08 02:58:26;;;;;;;22.73;12.75;;;;;;;10.06;nan;100555.34;4976670;28;97213;-70
2021/01/08 03:00:54;;;;;;;18.30;12.50;;;;;;;10.05;nan;100545.66;4974007;28;97565;-69
2021/01/08 03:03:26;;;;;;;17.88;12.00;;;;;;;10.04;nan;100549.13;4975697;28;98122;-72
2021/01/08 03:05:55;;;;;;;18.73;12.15;;;;;;;10.07;nan;100554.53;4974688;28;97788;-69
2021/01/08 03:08:23;;;;;;;19.15;11.43;;;;;;;10.08;nan;100551.09;4960846;28;97227;-69
2021/01/08 03:10:51;;;;;;;16.95;12.70;;;;;;;10.09;nan;100552.03;4959637;28;97818;-71
2021/01/08 03:13:18;;;;;;;20.85;12.63;;;;;;;10.06;nan;100552.72;4976473;28;97529;-69
2021/01/08 03:15:46;;;;;;;18.98;12.35;;;;;;;10.10;nan;100549.47;4959427;28;101251;-69
2021/01/08 03:18:14;;;;;;;21.27;15.45;;;;;;;10.16;nan;100549.78;4975837;28;97172;-69
2021/01/08 03:20:42;;;;;;;18.30;12.63;;;;;;;10.15;nan;100542.75;4978469;28;97403;-69
2021/01/08 03:23:09;;;;;;;18.67;12.98;;;;;;;10.15;nan;100555.84;4976453;28;99110;-70
2021/01/08 03:25:37;;;;;;;16.33;11.73;;;;;;;10.14;nan;100553.16;4977830;28;97756;-71
2021/01/08 03:28:05;;;;;;;16.20;11.73;;;;;;;10.15;nan;100554.94;4976263;28;97942;-70
2021/01/08 03:30:32;;;;;;;15.90;10.43;;;;;;;10.14;nan;100554.03;4976725;28;97953;-69
2021/01/08 03:32:59;;;;;;;17.90;11.98;;;;;;;10.07;nan;100553.66;4977847;28;97548;-70
2021/01/08 03:35:28;;;;;;;16.38;11.43;;;;;;;10.06;nan;100547.47;4978298;28;97751;-71
2021/01/08 03:37:55;;;;;;;19.42;12.65;;;;;;;10.05;nan;100548.28;4977994;28;96874;-71
2021/01/08 03:40:23;;;;;;;17.75;11.88;;;;;;;10.09;nan;100544.16;4976121;28;96857;-70
2021/01/08 03:42:51;;;;;;;21.08;15.15;;;;;;;10.18;nan;100544.63;4976604;28;98015;-71
2021/01/08 03:45:18;;;;;;;18.70;12.25;;;;;;;10.20;nan;100537.69;4978235;28;97986;-71
2021/01/08 03:47:46;;;;;;;18.15;11.95;;;;;;;10.18;nan;100537.63;4943890;28;97275;-71
2021/01/08 03:50:13;;;;;;;19.52;12.70;;;;;;;10.17;nan;100538.47;4976384;28;97416;-68
2021/01/08 03:52:42;;;;;;;15.80;11.68;;;;;;;10.14;nan;100546.16;4974127;28;98950;-70
2021/01/08 03:55:10;;;;;;;17.58;12.30;;;;;;;10.11;nan;100543.41;4977235;28;99555;-70
2021/01/08 03:57:38;;;;;;;21.77;15.20;;;;;;;10.20;nan;100538.59;4957740;28;97048;-71
2021/01/08 04:00:07;;;;;;;21.87;15.93;;;;;;;10.29;nan;100538.19;4975526;28;97533;-72
2021/01/08 04:02:34;;;;;;;19.67;15.37;;;;;;;10.35;nan;100540.19;4955104;28;98524;-70
2021/01/08 04:05:02;;;;;;;21.55;15.73;;;;;;;10.40;nan;100536.09;4942402;28;97827;-70
2021/01/08 04:07:31;;;;;;;20.92;15.43;;;;;;;10.46;nan;100532.03;4975235;28;97395;-71
2021/01/08 04:09:59;;;;;;;21.90;16.02;;;;;;;10.52;nan;100532.34;4974328;28;97335;-71
2021/01/08 04:12:27;;;;;;;19.83;14.90;;;;;;;10.62;nan;100531.94;4956702;28;97769;-69
2021/01/08 04:14:54;;;;;;;19.52;12.15;;;;;;;10.54;nan;100538.59;4975002;28;97606;-71
2021/01/08 04:17:22;;;;;;;15.93;11.65;;;;;;;10.51;nan;100537.53;4958354;28;97350;-71
2021/01/08 04:19:49;;;;;;;23.17;15.45;;;;;;;10.53;nan;100535.88;4973229;28;97622;-70
2021/01/08 04:22:35;;;;;;;16.83;12.20;;;;;;;10.42;nan;100540.59;4956487;28;98055;-69
2021/01/08 04:25:05;;;;;;;16.70;11.77;;;;;;;10.37;nan;100539.47;4976571;28;98761;-70
2021/01/08 04:27:32;;;;;;;17.52;11.45;;;;;;;10.35;nan;100532.31;4967090;28;98124;-70
2021/01/08 04:30:00;;;;;;;15.52;11.35;;;;;;;10.29;nan;100535.56;4955819;28;97855;-70
2021/01/08 04:32:27;;;;;;;18.10;11.65;;;;;;;10.28;nan;100539.00;4958172;28;97880;-70
2021/01/08 04:34:55;;;;;;;18.35;10.98;;;;;;;10.28;nan;100538.09;4975907;28;99360;-71
2021/01/08 04:37:23;;;;;;;19.40;14.50;;;;;;;10.38;nan;100533.41;4970562;28;101724;-68
2021/01/08 04:39:50;;;;;;;18.50;12.57;;;;;;;10.34;nan;100539.31;4975564;28;97597;-71
2021/01/08 04:42:19;;;;;;;19.33;12.15;;;;;;;10.31;nan;100538.28;4975757;28;98149;-69
2021/01/08 04:44:46;;;;;;;17.77;11.02;;;;;;;10.28;nan;100540.72;4974502;28;98313;-70
2021/01/08 04:47:15;;;;;;;19.27;11.98;;;;;;;10.23;nan;100547.47;4976168;28;98082;-71
2021/01/08 04:49:43;;;;;;;18.13;12.18;;;;;;;10.24;nan;100538.78;4975151;28;97453;-69
2021/01/08 04:52:11;;;;;;;27.73;16.55;;;;;;;10.26;nan;100540.66;4974285;28;99894;-70
2021/01/08 04:54:39;;;;;;;30.83;18.23;;;;;;;10.25;nan;100543.19;4974462;28;97798;-69
2021/01/08 04:57:09;;;;;;;20.27;12.77;;;;;;;10.22;nan;100543.06;4956272;28;97673;-71
2021/01/08 04:59:38;;;;;;;18.23;12.15;;;;;;;10.19;nan;100544.69;4975389;28;97732;-71
2021/01/08 05:02:05;;;;;;;18.27;12.05;;;;;;;10.19;nan;100549.03;4966743;28;98160;-70
2021/01/08 05:04:33;;;;;;;18.52;12.13;;;;;;;10.19;nan;100549.94;4969955;28;98983;-70
2021/01/08 05:07:01;;;;;;;17.80;12.10;;;;;;;10.19;nan;100549.94;4955995;28;97273;-70
2021/01/08 05:09:28;;;;;;;20.27;15.15;;;;;;;10.28;nan;100545.97;4955589;28;97270;-70
2021/01/08 05:11:57;;;;;;;18.85;12.30;;;;;;;10.23;nan;100544.84;4975413;28;97738;-71
2021/01/08 05:14:27;;;;;;;16.88;11.13;;;;;;;10.20;nan;100551.75;4971586;28;97722;-70
2021/01/08 05:16:56;;;;;;;17.25;11.38;;;;;;;10.18;nan;100549.88;4942646;28;97261;-71
2021/01/08 05:19:24;;;;;;;22.95;15.10;;;;;;;10.29;nan;100555.66;4955039;28;98070;-71
2021/01/08 05:21:53;;;;;;;32.85;18.73;;;;;;;10.20;nan;100558.69;4976862;28;98885;-71
2021/01/08 05:24:21;;;;;;;23.77;15.05;;;;;;;10.16;nan;100560.28;4974434;28;99235;-69
2021/01/08 05:26:49;;;;;;;21.77;15.60;;;;;;;10.29;nan;100560.91;4975049;28;97950;-71
2021/01/08 05:29:17;;;;;;;19.45;12.77;;;;;;;10.23;nan;100552.72;4977753;28;97313;-71
2021/01/08 05:31:47;;;;;;;18.20;11.90;;;;;;;10.20;nan;100556.06;4976460;28;98044;-71
2021/01/08 05:34:23;;;;;;;18.23;13.00;;;;;;;10.16;nan;100562.91;4976132;28;99050;-71
2021/01/08 05:36:51;;;;;;;18.10;11.60;;;;;;;10.13;nan;100560.13;4960363;28;97601;-70
2021/01/08 05:39:19;;;;;;;19.80;12.02;;;;;;;10.09;nan;100566.03;4977448;28;96958;-69
2021/01/08 05:41:46;;;;;;;19.83;12.18;;;;;;;10.07;nan;100558.91;4977043;28;99932;-70
2021/01/08 05:44:15;;;;;;;19.63;12.40;;;;;;;10.04;nan;100563.97;4977915;28;97896;-70
2021/01/08 05:46:46;;;;;;;15.85;11.82;;;;;;;9.98;nan;100564.53;4978446;28;97674;-70
2021/01/08 05:49:14;;;;;;;18.00;12.50;;;;;;;9.96;nan;100567.94;4978276;28;97409;-71
2021/01/08 05:52:01;;;;;;;17.88;11.52;;;;;;;9.96;nan;100570.56;4976619;28;99082;-70
2021/01/08 05:54:28;;;;;;;20.60;13.48;;;;;;;9.94;nan;100567.84;4961131;28;98988;-71
2021/01/08 05:56:56;;;;;;;22.35;12.38;;;;;;;9.95;nan;100561.78;4960866;28;97550;-72
2021/01/08 05:59:45;;;;;;;19.98;12.40;;;;;;;9.93;nan;100557.25;4959524;28;97426;-72
2021/01/08 06:02:13;;;;;;;17.73;11.77;;;;;;;9.95;nan;100569.66;4975971;28;99317;-70
2021/01/08 06:04:41;;;;;;;17.55;12.48;;;;;;;9.98;nan;100564.53;4960887;28;97858;-70
2021/01/08 06:07:15;;;;;;;19.58;12.88;;;;;;;10.02;nan;100568.22;4978358;28;96880;-71
2021/01/08 06:09:44;;;;;;;20.73;12.27;;;;;;;10.01;nan;100563.81;4977969;28;97488;-70
2021/01/08 06:12:12;;;;;;;18.65;11.30;;;;;;;9.98;nan;100571.53;4961198;28;98265;-71
2021/01/08 06:14:39;;;;;;;23.20;16.63;;;;;;;10.03;nan;100567.41;4978090;28;97803;-71
2021/01/08 06:17:07;;;;;;;24.50;17.58;;;;;;;10.10;nan;100567.84;4977680;28;97403;-71
2021/01/08 06:19:35;;;;;;;25.00;16.90;;;;;;;10.14;nan;100579.41;4976926;28;97577;-69
2021/01/08 06:22:05;;;;;;;26.42;18.15;;;;;;;10.20;nan;100579.69;4976638;28;97998;-70
2021/01/08 06:24:32;;;;;;;23.57;17.17;;;;;;;10.25;nan;100579.94;4977036;28;98165;-70
2021/01/08 06:27:01;;;;;;;24.35;16.63;;;;;;;10.31;nan;100582.91;4975935;28;97302;-70
2021/01/08 06:29:33;;;;;;;24.35;16.90;;;;;;;10.37;nan;100583.19;4975992;28;96904;-70
2021/01/08 06:32:09;;;;;;;23.17;16.77;;;;;;;10.43;nan;100589.66;4977732;28;98950;-70
2021/01/08 06:34:46;;;;;;;24.92;17.05;;;;;;;10.46;nan;100586.28;4972111;28;98935;-69
2021/01/08 06:37:18;;;;;;;24.95;16.60;;;;;;;10.51;nan;100596.19;4975227;28;97185;-70
2021/01/08 06:39:47;;;;;;;25.27;16.90;;;;;;;10.53;nan;100586.66;4977054;28;96763;-70
2021/01/08 06:42:25;;;;;;;25.90;17.48;;;;;;;10.57;nan;100590.34;4956831;28;99606;-69
2021/01/08 06:44:55;;;;;;;24.50;17.07;;;;;;;10.62;nan;100595.00;4975669;28;98330;-70
2021/01/08 06:47:23;;;;;;;24.30;16.90;;;;;;;10.70;nan;100604.16;4975973;28;97241;-69
2021/01/08 06:49:51;;;;;;;23.30;16.63;;;;;;;10.72;nan;100596.34;4975811;28;97813;-70
2021/01/08 06:52:21;;;;;;;24.13;16.67;;;;;;;10.76;nan;100608.81;4975529;28;97935;-70
2021/01/08 06:54:52;;;;;;;26.42;17.75;;;;;;;10.76;nan;100614.09;4976443;28;97653;-71
2021/01/08 06:57:21;;;;;;;24.50;17.50;;;;;;;10.77;nan;100611.53;4977155;28;97821;-69
2021/01/08 06:59:54;;;;;;;23.13;16.83;;;;;;;10.78;nan;100602.84;4957995;28;96841;-71
2021/01/08 07:02:22;;;;;;;23.85;16.90;;;;;;;10.81;nan;100608.22;4957953;28;98168;-68
2021/01/08 07:04:50;;;;;;;24.15;17.40;;;;;;;10.82;nan;100617.03;4959830;28;97486;-70
2021/01/08 07:07:23;;;;;;;24.50;17.20;;;;;;;10.79;nan;100625.63;4977036;28;97647;-69
2021/01/08 07:10:10;;;;;;;23.70;16.70;;;;;;;10.77;nan;100618.50;4970206;28;98091;-70
2021/01/08 07:12:42;;;;;;;23.45;16.45;;;;;;;10.73;nan;100622.69;4975149;28;98847;-70
2021/01/08 07:15:10;;;;;;;24.50;16.92;;;;;;;10.74;nan;100626.25;4976641;28;99990;-70
2021/01/08 07:17:39;;;;;;;25.90;17.57;;;;;;;10.75;nan;100628.94;4975773;28;98313;-70
2021/01/08 07:20:08;;;;;;;23.55;17.13;;;;;;;10.78;nan;100628.19;4957335;28;97929;-70
2021/01/08 07:22:41;;;;;;;24.63;16.75;;;;;;;10.77;nan;100629.00;4958556;28;97448;-70
2021/01/08 07:25:12;;;;;;;25.13;17.70;;;;;;;10.76;nan;100632.47;4959542;28;99788;-71
2021/01/08 07:27:41;;;;;;;26.03;17.30;;;;;;;10.78;nan;100629.09;4974211;28;97798;-69
2021/01/08 07:30:11;;;;;;;24.73;17.13;;;;;;;10.82;nan;100640.66;4975474;28;97489;-70
2021/01/08 07:32:39;;;;;;;24.63;16.77;;;;;;;10.81;nan;100644.09;4958255;28;97720;-70
2021/01/08 07:35:17;;;;;;;23.58;16.10;;;;;;;10.76;nan;100645.59;4974672;28;97372;-71
2021/01/08 07:37:59;;;;;;;24.67;17.00;;;;;;;10.74;nan;100647.25;4957563;28;97277;-70
2021/01/08 07:40:28;;;;;;;25.45;17.05;;;;;;;10.74;nan;100640.28;4975561;28;97841;-71
2021/01/08 07:43:00;;;;;;;24.97;16.77;;;;;;;10.69;nan;100648.75;4975309;28;99501;-71
2021/01/08 07:45:50;;;;;;;24.30;16.80;;;;;;;10.71;nan;100652.38;4957684;28;98108;-69
2021/01/08 07:48:19;;;;;;;20.92;13.73;;;;;;;10.63;nan;100651.06;4959152;28;96912;-68
2021/01/08 07:50:57;;;;;;;21.67;12.68;;;;;;;10.52;nan;100653.16;4976425;28;96898;-75
2021/01/08 07:53:48;;;;;;;19.15;11.30;;;;;;;10.39;nan;100658.59;4957111;28;101010;-75
2021/01/08 07:56:17;;;;;;;20.13;12.90;;;;;;;10.38;nan;100663.78;4969783;28;97848;-69
2021/01/08 07:58:47;;;;;;;18.27;12.32;;;;;;;10.31;nan;100666.91;4957265;28;97642;-70
2021/01/08 08:01:17;;;;;;;19.60;11.57;;;;;;;10.21;nan;100668.13;4976594;28;97823;-69
2021/01/08 08:03:45;;;;;;;18.17;11.43;;;;;;;10.16;nan;100673.13;4975444;28;99054;-69
2021/01/08 08:06:13;;;;;;;19.35;11.73;;;;;;;10.14;nan;100674.78;4961823;28;98745;-69
2021/01/08 08:08:42;;;;;;;20.33;12.48;;;;;;;10.14;nan;100682.66;4976360;28;97511;-69
2021/01/08 08:11:13;;;;;;;24.30;16.07;;;;;;;10.25;nan;100675.38;4956081;28;97429;-70
2021/01/08 08:13:40;;;;;;;23.40;16.50;;;;;;;10.29;nan;100674.72;4970946;28;97356;-71
2021/01/08 08:16:08;;;;;;;23.85;16.52;;;;;;;10.39;nan;100678.69;4972022;28;98670;-70
2021/01/08 08:18:49;;;;;;;22.40;16.55;;;;;;;10.45;nan;100682.56;4970539;28;97722;-69
2021/01/08 08:21:21;;;;;;;23.67;17.40;;;;;;;10.48;nan;100682.69;4955250;28;98444;-69
2021/01/08 08:23:52;;;;;;;23.58;16.85;;;;;;;10.50;nan;100682.78;4972101;28;98824;-69
2021/01/08 08:26:21;;;;;;;23.43;17.00;;;;;;;10.54;nan;100685.66;4953784;28;97651;-69
2021/01/08 08:28:59;;;;;;;22.77;16.02;;;;;;;10.56;nan;100698.84;4973837;28;97366;-70
2021/01/08 08:31:28;;;;;;;24.42;15.88;;;;;;;10.60;nan;100696.44;4956021;28;97263;-70
2021/01/08 08:33:56;;;;;;;24.80;16.15;;;;;;;10.64;nan;100698.41;4973516;28;98383;-69
2021/01/08 08:36:25;;;;;;;24.00;16.10;;;;;;;10.63;nan;100703.59;4956824;28;98630;-69
2021/01/08 08:38:59;;;;;;;23.33;16.37;;;;;;;10.63;nan;100698.34;4954537;28;97313;-69
2021/01/08 08:41:28;;;;;;;24.08;16.55;;;;;;;10.60;nan;100704.34;4975054;28;97194;-69
2021/01/08 08:44:08;;;;;;;24.25;16.20;;;;;;;10.58;nan;100708.63;4956306;28;97294;-69
2021/01/08 08:46:46;;;;;;;22.43;15.23;;;;;;;10.60;nan;100706.09;4974182;28;99232;-69
2021/01/08 08:49:15;;;;;;;22.75;16.02;;;;;;;10.63;nan;100704.50;4973395;28;97735;-70
2021/01/08 08:51:44;;;;;;;24.60;16.20;;;;;;;10.68;nan;100712.59;4974779;28;98227;-69
2021/01/08 08:54:13;;;;;;;23.02;15.65;;;;;;;10.66;nan;100709.91;4974987;28;99369;-70
2021/01/08 08:56:48;;;;;;;22.60;16.05;;;;;;;10.66;nan;100711.63;4956347;28;98285;-69
2021/01/08 08:59:16;;;;;;;24.10;16.60;;;;;;;10.69;nan;100714.44;4974801;28;97453;-69
2021/01/08 09:01:44;;;;;;;23.95;16.05;;;;;;;10.65;nan;100722.97;4960258;28;97687;-69
2021/01/08 09:04:12;;;;;;;23.35;17.02;;;;;;;10.66;nan;100722.13;4977961;28;97945;-71
2021/01/08 09:06:43;;;;;;;25.50;16.93;;;;;;;10.61;nan;100714.03;4977275;28;97895;-71
2021/01/08 09:09:16;;;;;;;21.08;15.75;;;;;;;10.59;nan;100717.38;4978664;28;97097;-72
2021/01/08 09:12:04;;;;;;;22.83;16.47;;;;;;;10.67;nan;100723.97;4979993;28;98299;-70
2021/01/08 09:14:33;;;;;;;22.93;16.63;;;;;;;10.67;nan;100718.69;4977783;28;99092;-70
2021/01/08 09:17:05;;;;;;;21.92;15.55;;;;;;;10.69;nan;100727.56;4959803;28;98329;-70
2021/01/08 09:19:38;;;;;;;24.27;16.27;;;;;;;10.69;nan;100733.69;4977854;28;97488;-69
2021/01/08 09:22:08;;;;;;;22.08;15.88;;;;;;;10.69;nan;100724.94;4978975;28;97064;-70
2021/01/08 09:24:37;;;;;;;22.02;15.88;;;;;;;10.72;nan;100731.25;4955572;28;99328;-70
2021/01/08 09:27:10;;;;;;;20.58;15.52;;;;;;;10.74;nan;100734.88;4959603;28;99130;-69
2021/01/08 09:29:38;;;;;;;20.27;14.53;;;;;;;10.77;nan;100741.97;4976882;28;97246;-69
2021/01/08 09:32:09;;;;;;;21.10;14.85;;;;;;;10.76;nan;100742.81;4977236;28;97751;-70
2021/01/08 09:34:38;;;;;;;20.42;14.23;;;;;;;10.76;nan;100740.19;4958668;28;98256;-70
2021/01/08 09:37:13;;;;;;;20.55;14.57;;;;;;;10.74;nan;100747.09;4977172;28;99118;-70
2021/01/08 09:39:43;;;;;;;23.90;15.25;;;;;;;10.71;nan;100744.31;4976120;28;97313;-70
2021/01/08 09:42:12;;;;;;;21.65;14.65;;;;;;;10.68;nan;100741.50;4958321;28;98293;-70
2021/01/08 09:44:41;;;;;;;21.20;13.93;;;;;;;10.70;nan;100751.28;4959038;28;100665;-70
2021/01/08 09:47:09;;;;;;;23.58;15.38;;;;;;;10.71;nan;100744.31;4978743;28;97930;-69
2021/01/08 09:49:42;;;;;;;20.50;14.05;;;;;;;10.72;nan;100738.22;4977584;28;97686;-71
2021/01/08 09:52:10;;;;;;;19.73;14.20;;;;;;;10.76;nan;100750.69;4977747;28;97958;-70
2021/01/08 09:54:44;;;;;;;21.98;14.95;;;;;;;10.74;nan;100744.47;4976347;28;98294;-70
2021/01/08 09:57:24;;;;;;;21.98;15.10;;;;;;;10.72;nan;100752.28;4977203;28;98627;-70
2021/01/08 09:59:56;;;;;;;19.27;14.40;;;;;;;10.69;nan;100748.59;4958828;28;97653;-70
2021/01/08 10:02:35;;;;;;;20.23;14.63;;;;;;;10.68;nan;100752.94;4977953;28;97756;-70
2021/01/08 10:05:04;;;;;;;20.90;14.93;;;;;;;10.71;nan;100752.19;4977294;28;100385;-70
2021/01/08 10:07:41;;;;;;;20.08;14.65;;;;;;;10.70;nan;100750.38;4976988;28;97930;-70
2021/01/08 10:10:11;;;;;;;21.30;14.93;;;;;;;10.71;nan;100752.19;4977881;28;97786;-70
2021/01/08 10:12:47;;;;;;;20.40;15.23;;;;;;;10.73;nan;100756.69;4975854;28;97881;-70
2021/01/08 10:15:35;;;;;;;18.00;13.93;;;;;;;10.70;nan;100761.78;4977916;28;98535;-70
2021/01/08 10:18:11;;;;;;;18.98;14.60;;;;;;;10.70;nan;100751.28;4977112;28;98256;-69
2021/01/08 10:20:47;;;;;;;22.17;14.90;;;;;;;10.71;nan;100741.69;4977601;28;96988;-69
2021/01/08 10:23:16;;;;;;;18.23;13.73;;;;;;;10.72;nan;100753.97;4976996;28;97195;-69
2021/01/08 10:25:44;;;;;;;22.60;14.93;;;;;;;10.72;nan;100749.66;4976651;28;97080;-69
2021/01/08 10:28:22;;;;;;;20.08;14.15;;;;;;;10.77;nan;100752.50;4977726;28;98035;-69
2021/01/08 10:30:51;;;;;;;20.85;14.35;;;;;;;10.80;nan;100753.53;4977100;28;97979;-70
2021/01/08 10:33:24;;;;;;;20.27;14.57;;;;;;;10.81;nan;100749.19;4976875;28;97788;-70
2021/01/08 10:35:52;;;;;;;20.10;14.38;;;;;;;10.80;nan;100753.53;4977548;28;98851;-69
2021/01/08 10:38:20;;;;;;;20.40;14.10;;;;;;;10.82;nan;100754.53;4976355;28;96907;-70
2021/01/08 10:40:48;;;;;;;21.02;14.45;;;;;;;10.83;nan;100748.47;4975871;28;96864;-70
2021/01/08 10:43:15;;;;;;;19.55;14.10;;;;;;;10.84;nan;100762.50;4977599;28;97884;-69
2021/01/08 10:45:45;;;;;;;19.47;13.33;;;;;;;10.78;nan;100756.94;4975506;28;98807;-70
2021/01/08 10:48:14;;;;;;;20.47;14.00;;;;;;;10.76;nan;100758.59;4978262;28;97959;-69
2021/01/08 10:51:00;;;;;;;17.52;13.02;;;;;;;10.74;nan;100757.59;4975806;28;97393;-70
2021/01/08 10:53:27;;;;;;;17.42;12.20;;;;;;;10.77;nan;100757.75;4975332;28;97327;-69
2021/01/08 10:55:55;;;;;;;16.97;12.07;;;;;;;10.77;nan;100760.38;4977953;28;97263;-69
2021/01/08 10:58:22;;;;;;;15.75;10.88;;;;;;;10.73;nan;100761.06;4976403;28;98891;-69
2021/01/08 11:00:51;;;;;;;11.48;9.23;;;;;;;10.63;nan;100757.03;4959449;28;97287;-70
2021/01/08 11:03:19;;;;;;;12.15;9.50;;;;;;;10.56;nan;100756.63;4976537;28;97160;-69
2021/01/08 11:05:46;;;;;;;11.13;8.98;;;;;;;10.52;nan;100757.28;4976684;28;99061;-69
2021/01/08 11:08:14;;;;;;;10.60;8.40;;;;;;;10.43;nan;100755.09;4975524;28;97895;-69
2021/01/08 11:10:41;;;;;;;8.70;7.80;;;;;;;10.36;nan;100757.31;4977971;28;97127;-69
2021/01/08 11:13:09;;;;;;;10.75;8.55;;;;;;;10.31;nan;100753.53;4976310;28;97993;-69
2021/01/08 11:15:36;;;;;;;10.02;8.55;;;;;;;10.21;nan;100749.50;4957197;28;98404;-69
2021/01/08 11:18:06;;;;;;;9.27;8.10;;;;;;;10.11;nan;100755.97;4976589;28;98224;-70
2021/01/08 11:20:33;;;;;;;10.13;8.45;;;;;;;10.14;nan;100761.38;4975230;28;97782;-69
2021/01/08 11:23:03;;;;;;;9.88;8.82;;;;;;;10.15;nan;100747.47;4977547;28;98360;-69
2021/01/08 11:25:31;;;;;;;9.63;8.35;;;;;;;10.18;nan;100757.25;4941094;28;100586;-69
2021/01/08 11:27:58;;;;;;;9.60;8.18;;;;;;;10.25;nan;100753.22;4975884;28;99222;-69
2021/01/08 11:30:26;;;;;;;10.00;8.27;;;;;;;10.27;nan;100751.56;4957915;28;97396;-70
2021/01/08 11:32:54;;;;;;;8.93;8.07;;;;;;;10.32;nan;100751.00;4957166;28;97908;-69
2021/01/08 11:35:22;;;;;;;9.50;8.50;;;;;;;10.35;nan;100758.09;4977551;28;99202;-69
2021/01/08 11:37:49;;;;;;;7.60;6.82;;;;;;;10.39;nan;100761.00;4940975;28;99212;-70
2021/01/08 11:40:17;;;;;;;8.57;7.28;;;;;;;10.45;nan;100757.78;4958127;28;97704;-70